Time;durP1;ratioP1;P1;durP2;ratioP2;P2;SDS_P1;SDS_P2;PMS_P1;PMS_P2;Temp;Humidity;BMP_temperature;BMP_pressure;BME280_temperature;BME280_humidity;BME280_pressure;Samples;Min_cycle;Max_cycle;Signal;HPM_P1;HPM_P2
2021/06/21 00:02:23;;;;;;;5.67;2.63;;;18.00;99.90;;;;;;4993145;28;20492;-67
2021/06/21 00:04:50;;;;;;;5.13;3.17;;;18.00;99.90;;;;;;4992922;28;20509;-68
2021/06/21 00:07:15;;;;;;;6.30;3.50;;;18.00;99.90;;;;;;4988501;28;20469;-67
2021/06/21 00:09:41;;;;;;;8.43;3.27;;;17.90;99.90;;;;;;4973088;28;20459;-67
2021/06/21 00:12:09;;;;;;;5.70;2.20;;;17.90;99.90;;;;;;4973722;28;20263;-67
2021/06/21 00:14:34;;;;;;;7.80;2.60;;;17.90;99.90;;;;;;4973482;28;20204;-67
2021/06/21 00:17:00;;;;;;;6.67;2.10;;;17.90;99.90;;;;;;4973476;28;20427;-67
2021/06/21 00:19:25;;;;;;;5.43;2.43;;;18.00;99.90;;;;;;4973158;28;20176;-67
2021/06/21 00:21:51;;;;;;;5.97;2.97;;;18.00;99.90;;;;;;4973278;28;20250;-68
2021/06/21 00:24:20;;;;;;;6.27;2.80;;;17.90;99.90;;;;;;4973242;28;20180;-68
2021/06/21 00:26:49;;;;;;;4.60;2.50;;;17.80;99.90;;;;;;4973340;28;20168;-67
2021/06/21 00:29:15;;;;;;;6.33;2.23;;;17.80;99.90;;;;;;4971623;28;20459;-68
2021/06/21 00:31:41;;;;;;;5.77;2.37;;;17.90;99.90;;;;;;4973316;28;20430;-67
2021/06/21 00:34:07;;;;;;;5.17;2.40;;;18.00;99.90;;;;;;4973307;28;20184;-67
2021/06/21 00:36:33;;;;;;;2.70;2.00;;;18.10;99.90;;;;;;4972986;28;20435;-67
2021/06/21 00:38:58;;;;;;;7.20;2.90;;;18.10;99.90;;;;;;4972711;28;20459;-67
2021/06/21 00:41:24;;;;;;;6.67;2.80;;;18.10;99.90;;;;;;4973127;28;20180;-67
2021/06/21 00:43:50;;;;;;;3.33;2.30;;;18.10;99.90;;;;;;4973126;28;20187;-68
2021/06/21 00:46:15;;;;;;;5.43;2.27;;;18.20;99.90;;;;;;4973146;28;20184;-67
2021/06/21 00:48:41;;;;;;;7.47;2.77;;;18.20;99.90;;;;;;4972687;28;20200;-67
2021/06/21 00:51:08;;;;;;;5.57;2.70;;;18.20;99.90;;;;;;4972981;28;20266;-67
2021/06/21 00:53:34;;;;;;;7.57;2.50;;;18.00;99.90;;;;;;4973055;28;20792;-67
2021/06/21 00:56:00;;;;;;;3.20;2.30;;;18.00;99.90;;;;;;4972977;28;20426;-67
2021/06/21 00:58:26;;;;;;;5.20;2.53;;;17.90;99.90;;;;;;4972730;28;20447;-67
2021/06/21 01:00:52;;;;;;;4.80;1.90;;;18.00;99.90;;;;;;4973064;28;20176;-68
2021/06/21 01:03:18;;;;;;;4.93;2.70;;;18.10;99.90;;;;;;4973032;28;20920;-68
2021/06/21 01:05:44;;;;;;;7.60;2.97;;;18.10;99.90;;;;;;4974232;28;20565;-68
2021/06/21 01:08:10;;;;;;;5.77;3.03;;;18.00;99.90;;;;;;4988104;28;20450;-67
2021/06/21 01:10:43;;;;;;;4.67;2.50;;;18.00;99.90;;;;;;4995996;28;20657;-67
2021/06/21 01:13:21;;;;;;;5.60;2.80;;;18.10;99.90;;;;;;4996594;28;20427;-67
2021/06/21 01:16:02;;;;;;;6.53;3.03;;;18.10;99.90;;;;;;4996234;28;20446;-67
2021/06/21 01:18:30;;;;;;;3.93;2.60;;;18.00;99.90;;;;;;4995688;28;20442;-67
2021/06/21 01:21:22;;;;;;;5.67;2.70;;;18.10;99.90;;;;;;4996227;28;20568;-67
2021/06/21 01:24:06;;;;;;;5.23;2.30;;;18.10;99.90;;;;;;4995999;28;20939;-67
2021/06/21 01:26:49;;;;;;;5.20;2.83;;;18.10;99.90;;;;;;4995857;28;20493;-67
2021/06/21 01:29:43;;;;;;;6.20;3.10;;;18.20;99.90;;;;;;4995639;28;20458;-68
2021/06/21 01:32:17;;;;;;;4.43;2.60;;;18.20;99.90;;;;;;4995905;28;20425;-66
2021/06/21 01:34:56;;;;;;;7.10;3.10;;;18.30;99.90;;;;;;4995865;28;20764;-67
2021/06/21 01:37:23;;;;;;;12.70;2.70;;;18.50;99.90;;;;;;4995542;28;20524;-66
2021/06/21 01:39:53;;;;;;;5.90;2.27;;;18.50;99.90;;;;;;4995597;28;20488;-66
2021/06/21 01:42:21;;;;;;;9.00;2.53;;;18.50;99.90;;;;;;4995629;28;20423;-67
2021/06/21 01:44:59;;;;;;;6.43;2.27;;;18.50;99.90;;;;;;4995592;28;20423;-66
2021/06/21 01:47:25;;;;;;;8.10;2.43;;;18.50;99.90;;;;;;4994115;28;20545;-66
2021/06/21 01:49:52;;;;;;;2.60;2.40;;;18.50;99.90;;;;;;4995162;28;20960;-66
2021/06/21 01:52:19;;;;;;;8.80;3.10;;;18.50;99.90;;;;;;4995322;28;20510;-66
2021/06/21 01:54:49;;;;;;;7.50;2.40;;;18.50;99.90;;;;;;4995448;28;20421;-66
2021/06/21 01:57:21;;;;;;;6.10;3.00;;;18.50;99.90;;;;;;4995278;28;20443;-67
2021/06/21 01:59:49;;;;;;;5.83;3.60;;;18.60;99.90;;;;;;4995022;28;20994;-66
2021/06/21 02:02:16;;;;;;;8.03;2.70;;;18.50;99.90;;;;;;4995240;28;20427;-66
2021/06/21 02:04:42;;;;;;;6.47;3.20;;;18.30;99.90;;;;;;4995292;28;20501;-66
2021/06/21 02:07:10;;;;;;;5.53;2.90;;;18.30;99.90;;;;;;4991835;28;20526;-66
2021/06/21 02:09:36;;;;;;;5.70;2.67;;;18.40;99.90;;;;;;4975307;28;20459;-67
2021/06/21 02:12:03;;;;;;;5.93;2.40;;;18.40;99.90;;;;;;4975586;28;20936;-67
2021/06/21 02:14:30;;;;;;;5.07;2.47;;;18.40;99.90;;;;;;4975541;28;20412;-67
2021/06/21 02:16:57;;;;;;;6.80;2.80;;;18.50;99.90;;;;;;4975058;28;20466;-67
2021/06/21 02:19:28;;;;;;;5.53;3.20;;;18.50;99.90;;;;;;4975408;28;20431;-67
2021/06/21 02:21:54;;;;;;;7.10;2.87;;;18.40;99.90;;;;;;4975462;28;20498;-66
2021/06/21 02:24:20;;;;;;;8.20;2.80;;;18.30;99.90;;;;;;4975494;28;20917;-66
2021/06/21 02:26:47;;;;;;;6.93;3.77;;;18.20;99.90;;;;;;4975270;28;20416;-67
2021/06/21 02:29:17;;;;;;;6.07;3.03;;;18.10;99.90;;;;;;4974844;28;20459;-66
2021/06/21 02:31:44;;;;;;;10.83;4.30;;;18.10;99.90;;;;;;4975366;28;20442;-66
2021/06/21 02:34:10;;;;;;;5.67;3.07;;;18.10;99.90;;;;;;4975302;28;20510;-67
2021/06/21 02:36:36;;;;;;;12.57;3.80;;;18.20;99.90;;;;;;4975133;28;20969;-67
2021/06/21 02:39:02;;;;;;;5.87;3.00;;;18.30;99.90;;;;;;4974785;28;20246;-67
2021/06/21 02:41:28;;;;;;;6.57;2.77;;;18.30;99.90;;;;;;4974975;28;20235;-67
2021/06/21 02:43:54;;;;;;;5.80;2.87;;;18.40;99.90;;;;;;4975028;28;20420;-66
2021/06/21 02:46:19;;;;;;;14.37;4.13;;;18.40;99.90;;;;;;4975064;28;20203;-66
2021/06/21 02:48:45;;;;;;;8.73;3.03;;;18.40;99.90;;;;;;4974619;28;20564;-66
2021/06/21 02:51:17;;;;;;;6.43;3.40;;;18.40;99.90;;;;;;4974899;28;20246;-65
2021/06/21 02:54:04;;;;;;;10.77;3.93;;;18.40;99.90;;;;;;4975076;28;20173;-66
2021/06/21 02:56:57;;;;;;;7.37;2.93;;;18.50;99.90;;;;;;4974877;28;20834;-66
2021/06/21 02:59:24;;;;;;;10.23;3.70;;;18.40;99.90;;;;;;4974628;28;20422;-66
2021/06/21 03:01:52;;;;;;;6.47;3.00;;;18.40;99.90;;;;;;4974721;28;20419;-66
2021/06/21 03:04:20;;;;;;;4.83;3.47;;;18.50;99.90;;;;;;4974683;28;20806;-67
2021/06/21 03:06:47;;;;;;;9.73;2.90;;;18.50;99.90;;;;;;4973502;28;20486;-67
2021/06/21 03:09:16;;;;;;;5.83;3.07;;;18.40;99.90;;;;;;4993702;28;20458;-67
2021/06/21 03:11:43;;;;;;;7.37;4.43;;;18.40;99.90;;;;;;4994067;28;20425;-67
2021/06/21 03:14:10;;;;;;;5.20;2.57;;;18.30;99.90;;;;;;4994013;28;20920;-66
2021/06/21 03:16:36;;;;;;;6.27;3.20;;;18.20;99.90;;;;;;4993955;28;20485;-66
2021/06/21 03:19:02;;;;;;;10.03;3.93;;;18.10;99.90;;;;;;4993420;28;20808;-66
2021/06/21 03:21:28;;;;;;;7.93;3.07;;;18.20;99.90;;;;;;4993975;28;20865;-67
2021/06/21 03:23:56;;;;;;;5.23;3.47;;;18.20;99.90;;;;;;4993987;28;20418;-66
2021/06/21 03:26:29;;;;;;;7.43;3.17;;;18.20;99.90;;;;;;4993652;28;20463;-66
2021/06/21 03:28:57;;;;;;;6.53;2.83;;;18.20;99.90;;;;;;4992599;28;20825;-66
2021/06/21 03:31:26;;;;;;;8.00;3.80;;;18.30;99.90;;;;;;4993626;28;20427;-66
2021/06/21 03:33:52;;;;;;;8.27;3.83;;;18.30;99.90;;;;;;4993479;28;20912;-66
2021/06/21 03:36:18;;;;;;;10.30;3.40;;;18.30;99.90;;;;;;4993586;28;20443;-66
2021/06/21 03:38:44;;;;;;;8.57;4.33;;;18.10;99.90;;;;;;4993627;28;20892;-66
2021/06/21 03:41:10;;;;;;;6.03;3.13;;;18.00;99.90;;;;;;4993731;28;20175;-66
2021/06/21 03:43:36;;;;;;;9.03;3.57;;;18.00;99.90;;;;;;4993792;28;20485;-67
2021/06/21 03:46:04;;;;;;;9.33;3.50;;;18.10;99.90;;;;;;4992058;28;20179;-66
2021/06/21 03:48:30;;;;;;;8.77;3.47;;;18.20;99.90;;;;;;4992870;28;20560;-67
2021/06/21 03:50:57;;;;;;;5.43;3.17;;;18.30;99.90;;;;;;4993464;28;21116;-66
2021/06/21 03:53:25;;;;;;;6.83;3.43;;;18.40;99.90;;;;;;4993234;28;20450;-66
2021/06/21 03:55:51;;;;;;;11.23;3.33;;;18.30;99.90;;;;;;4993152;28;20423;-66
2021/06/21 03:58:17;;;;;;;4.93;3.00;;;18.30;99.90;;;;;;4993361;28;20642;-66
2021/06/21 04:00:43;;;;;;;9.90;3.53;;;18.30;99.90;;;;;;4992982;28;20175;-66
2021/06/21 04:03:10;;;;;;;7.20;2.73;;;18.30;99.90;;;;;;4992994;28;20457;-66
2021/06/21 04:05:37;;;;;;;7.57;2.67;;;18.30;99.90;;;;;;4993209;28;20429;-67
2021/06/21 04:08:05;;;;;;;8.43;3.20;;;18.50;99.90;;;;;;4982202;28;20467;-67
2021/06/21 04:10:32;;;;;;;5.47;2.83;;;18.60;99.90;;;;;;4973378;28;20865;-65
2021/06/21 04:12:57;;;;;;;8.97;3.20;;;18.70;99.90;;;;;;4973936;28;20447;-66
2021/06/21 04:15:31;;;;;;;6.80;2.87;;;18.80;99.90;;;;;;4973423;28;20423;-66
2021/06/21 04:17:58;;;;;;;7.53;2.70;;;18.80;99.90;;;;;;4972117;28;20610;-66
2021/06/21 04:20:25;;;;;;;10.10;2.60;;;18.60;99.90;;;;;;4973157;28;20416;-66
2021/06/21 04:22:50;;;;;;;10.20;3.70;;;18.60;99.90;;;;;;4973356;28;20416;-66
2021/06/21 04:25:18;;;;;;;5.50;3.20;;;18.70;99.90;;;;;;4973356;28;20439;-66
2021/06/21 04:27:43;;;;;;;3.20;2.33;;;18.70;99.90;;;;;;4992500;28;20265;-66
2021/06/21 04:30:11;;;;;;;6.73;2.60;;;18.50;99.90;;;;;;4992517;28;20462;-67
2021/06/21 04:32:37;;;;;;;7.20;3.30;;;18.40;99.90;;;;;;4992665;28;20171;-65
2021/06/21 04:35:05;;;;;;;9.00;3.00;;;18.30;99.90;;;;;;4992638;28;20472;-66
2021/06/21 04:37:31;;;;;;;9.90;3.17;;;18.20;99.90;;;;;;4992502;28;20600;-66
2021/06/21 04:39:56;;;;;;;5.87;3.10;;;18.00;99.90;;;;;;4992262;28;20430;-66
2021/06/21 04:42:22;;;;;;;3.67;2.53;;;17.90;99.90;;;;;;4992483;28;20176;-65
2021/06/21 04:44:48;;;;;;;10.17;4.73;;;17.90;99.90;;;;;;4992581;28;20290;-66
2021/06/21 04:47:13;;;;;;;7.17;3.43;;;17.80;99.90;;;;;;4992482;28;20604;-65
2021/06/21 04:49:39;;;;;;;7.03;2.60;;;17.80;99.90;;;;;;4992064;28;20206;-67
2021/06/21 04:52:07;;;;;;;5.73;3.03;;;17.80;99.90;;;;;;4992595;28;20172;-66
2021/06/21 04:54:33;;;;;;;14.20;3.90;;;18.00;99.90;;;;;;4992501;28;20163;-66
2021/06/21 04:56:58;;;;;;;8.67;3.47;;;18.00;99.90;;;;;;4992284;28;20505;-66
2021/06/21 04:59:24;;;;;;;6.67;2.43;;;18.00;99.90;;;;;;4975854;28;20183;-66
2021/06/21 05:01:49;;;;;;;9.63;2.80;;;18.10;99.90;;;;;;4972952;28;20180;-66
2021/06/21 05:04:14;;;;;;;8.80;2.90;;;18.30;99.90;;;;;;4972940;28;20546;-66
2021/06/21 05:06:40;;;;;;;6.33;2.50;;;18.40;99.90;;;;;;4971674;28;20661;-66
2021/06/21 05:09:08;;;;;;;10.40;2.90;;;18.30;99.90;;;;;;4991459;28;20203;-65
2021/06/21 05:11:33;;;;;;;8.00;3.50;;;18.40;99.90;;;;;;4992205;28;20167;-66
2021/06/21 05:14:00;;;;;;;7.27;3.37;;;18.50;99.90;;;;;;4992282;28;20442;-66
2021/06/21 05:16:26;;;;;;;6.23;2.47;;;18.50;99.90;;;;;;4992275;28;20725;-66
2021/06/21 05:18:51;;;;;;;7.73;3.03;;;18.70;99.90;;;;;;4990645;28;20956;-66
2021/06/21 05:21:17;;;;;;;6.20;3.03;;;18.90;99.90;;;;;;4992192;28;20426;-66
2021/06/21 05:23:42;;;;;;;4.97;2.80;;;19.10;99.90;;;;;;4992215;28;20246;-66
2021/06/21 05:26:08;;;;;;;6.93;3.17;;;19.30;99.90;;;;;;4992031;28;20178;-66
2021/06/21 05:28:34;;;;;;;7.73;2.63;;;19.60;99.90;;;;;;4991727;28;20230;-66
2021/06/21 05:31:00;;;;;;;12.60;3.50;;;19.80;99.90;;;;;;4992119;28;20172;-65
2021/06/21 05:33:25;;;;;;;6.93;3.17;;;20.00;99.90;;;;;;4992046;28;20545;-66
2021/06/21 05:35:51;;;;;;;5.87;2.73;;;20.00;99.90;;;;;;4992098;28;20411;-66
2021/06/21 05:38:16;;;;;;;6.50;2.50;;;19.90;99.90;;;;;;4991727;28;20234;-66
2021/06/21 05:40:42;;;;;;;8.47;2.97;;;19.80;99.90;;;;;;4990537;28;20546;-65
2021/06/21 05:43:08;;;;;;;5.73;3.27;;;19.80;99.90;;;;;;4992007;28;20168;-65
2021/06/21 05:45:34;;;;;;;7.60;2.77;;;20.00;99.90;;;;;;4991806;28;20180;-66
2021/06/21 05:47:59;;;;;;;11.40;4.17;;;20.20;99.90;;;;;;4991630;28;20283;-64
2021/06/21 05:50:25;;;;;;;7.77;2.43;;;20.30;99.90;;;;;;4991666;28;20458;-65
2021/06/21 05:52:52;;;;;;;6.07;3.77;;;20.50;99.90;;;;;;4993585;28;20513;-65
2021/06/21 05:55:18;;;;;;;9.40;3.47;;;20.60;99.90;;;;;;4995349;28;20250;-64
2021/06/21 05:57:45;;;;;;;4.50;2.73;;;20.60;99.90;;;;;;4990889;28;20798;-65
2021/06/21 06:00:11;;;;;;;6.37;2.77;;;20.30;99.90;;;;;;4980768;28;20792;-65
2021/06/21 06:02:37;;;;;;;4.50;2.47;;;20.40;99.90;;;;;;4989145;28;20502;-64
2021/06/21 06:05:04;;;;;;;7.47;2.83;;;20.40;99.90;;;;;;4983893;28;20423;-64
2021/06/21 06:07:29;;;;;;;4.97;2.87;;;20.70;99.90;;;;;;4979159;28;20224;-64
2021/06/21 06:09:57;;;;;;;4.13;2.00;;;20.80;99.90;;;;;;4991367;28;20501;-64
2021/06/21 06:12:23;;;;;;;4.73;2.57;;;21.10;99.90;;;;;;4991743;28;20589;-65
2021/06/21 06:14:48;;;;;;;8.60;2.77;;;21.30;99.90;;;;;;4979419;28;20430;-64
2021/06/21 06:17:14;;;;;;;4.00;2.83;;;21.30;99.90;;;;;;4978382;28;20201;-65
2021/06/21 06:19:40;;;;;;;4.40;3.57;;;21.30;99.90;;;;;;4979467;28;20188;-64
2021/06/21 06:22:06;;;;;;;8.30;2.90;;;21.50;99.90;;;;;;4987311;28;20176;-66
2021/06/21 06:24:32;;;;;;;6.13;3.57;;;21.80;99.90;;;;;;4975607;28;20172;-66
2021/06/21 06:26:58;;;;;;;3.23;2.17;;;21.90;99.90;;;;;;4984293;28;20496;-63
2021/06/21 06:29:24;;;;;;;8.60;2.37;;;21.90;99.90;;;;;;4994048;28;20458;-64
2021/06/21 06:31:49;;;;;;;5.07;3.47;;;21.80;99.90;;;;;;4994792;28;20591;-65
2021/06/21 06:34:15;;;;;;;6.77;3.10;;;21.80;99.90;;;;;;4992270;28;20184;-66
2021/06/21 06:36:41;;;;;;;6.13;2.30;;;21.90;99.90;;;;;;4988352;28;20179;-65
2021/06/21 06:39:08;;;;;;;6.37;2.43;;;22.00;99.90;;;;;;4974679;28;20513;-64
2021/06/21 06:41:35;;;;;;;4.20;2.40;;;22.10;99.90;;;;;;4984668;28;20191;-65
2021/06/21 06:44:00;;;;;;;5.53;1.93;;;22.20;99.90;;;;;;4981451;28;20446;-65
2021/06/21 06:46:26;;;;;;;4.07;2.20;;;22.40;99.90;;;;;;4975067;28;20432;-64
2021/06/21 06:48:51;;;;;;;5.30;2.33;;;22.40;99.90;;;;;;4974738;28;20701;-65
2021/06/21 06:51:17;;;;;;;3.47;2.30;;;22.50;99.90;;;;;;4975050;28;20199;-63
2021/06/21 06:54:02;;;;;;;5.17;3.17;;;22.70;99.90;;;;;;4974885;28;20182;-63
2021/06/21 06:59:12;;;;;;;3.97;2.60;;;23.00;99.90;;;;;;4979537;28;20488;-62
2021/06/21 07:01:38;;;;;;;4.53;2.10;;;23.20;99.90;;;;;;4989834;28;20518;-63
2021/06/21 07:04:04;;;;;;;10.40;2.70;;;23.30;99.90;;;;;;4975675;28;20187;-63
2021/06/21 07:06:29;;;;;;;8.20;2.73;;;23.40;99.90;;;;;;4988297;28;20586;-63
2021/06/21 07:08:55;;;;;;;6.70;2.10;;;23.60;99.90;;;;;;4992009;28;20204;-63
2021/06/21 07:11:20;;;;;;;4.43;1.87;;;24.00;99.90;;;;;;4989013;28;20171;-62
2021/06/21 07:13:46;;;;;;;3.30;1.87;;;24.00;99.90;;;;;;4978445;28;20172;-62
2021/06/21 07:16:12;;;;;;;6.90;2.03;;;24.00;99.90;;;;;;4974451;28;20223;-64
2021/06/21 07:18:37;;;;;;;4.70;1.57;;;24.30;99.90;;;;;;4990240;28;20227;-64
2021/06/21 07:21:04;;;;;;;7.57;2.37;;;24.70;99.90;;;;;;4993896;28;20462;-63
2021/06/21 07:23:30;;;;;;;4.77;2.00;;;24.70;99.90;;;;;;4982979;28;20549;-63
2021/06/21 07:25:56;;;;;;;6.77;2.30;;;24.50;99.90;;;;;;4988176;28;20430;-62
2021/06/21 07:28:22;;;;;;;5.40;2.50;;;24.50;99.90;;;;;;4986047;28;20302;-65
2021/06/21 07:30:47;;;;;;;5.10;2.37;;;24.40;99.90;;;;;;4984166;28;20427;-62
2021/06/21 07:33:13;;;;;;;4.67;2.37;;;24.50;99.90;;;;;;4993522;28;20175;-63
2021/06/21 07:35:41;;;;;;;5.33;2.93;;;24.90;99.90;;;;;;4977269;28;20173;-62
2021/06/21 07:38:08;;;;;;;5.20;2.30;;;24.80;99.90;;;;;;4973919;28;20298;-62
2021/06/21 07:40:39;;;;;;;5.63;3.40;;;24.60;99.90;;;;;;4977801;28;20442;-62
2021/06/21 07:43:05;;;;;;;2.53;1.60;;;24.80;99.90;;;;;;4985814;28;20449;-62
2021/06/21 07:45:31;;;;;;;3.83;2.50;;;25.10;99.90;;;;;;4993444;28;20897;-62
2021/06/21 07:48:00;;;;;;;3.73;1.93;;;25.60;99.90;;;;;;4974862;28;20451;-62
2021/06/21 07:50:27;;;;;;;6.27;2.43;;;25.80;99.90;;;;;;4973689;28;20886;-63
2021/06/21 07:52:57;;;;;;;6.90;2.40;;;25.40;99.90;;;;;;4974098;28;20424;-62
2021/06/21 07:55:27;;;;;;;5.17;3.20;;;25.30;99.90;;;;;;5003965;28;20424;-63
2021/06/21 07:57:52;;;;;;;4.43;1.87;;;25.10;99.90;;;;;;4993457;28;20539;-62
2021/06/21 08:00:22;;;;;;;3.40;2.30;;;25.00;99.90;;;;;;4973436;28;20511;-63
2021/06/21 08:02:48;;;;;;;4.40;2.20;;;25.30;99.90;;;;;;4980288;28;20186;-63
2021/06/21 08:05:13;;;;;;;4.77;2.20;;;25.30;99.90;;;;;;4993166;28;20506;-64
2021/06/21 08:07:39;;;;;;;8.53;6.10;;;25.50;99.90;;;;;;4993052;28;20206;-62
2021/06/21 08:10:05;;;;;;;5.83;1.70;;;25.80;99.90;;;;;;4992708;28;20195;-63
2021/06/21 08:12:31;;;;;;;3.70;2.27;;;26.40;99.90;;;;;;4993021;28;20175;-64
2021/06/21 08:14:56;;;;;;;3.00;1.83;;;26.20;99.90;;;;;;4991552;28;20431;-63
2021/06/21 08:17:22;;;;;;;3.70;2.00;;;26.70;99.90;;;;;;4983193;28;20721;-62
2021/06/21 08:19:48;;;;;;;5.30;2.40;;;26.60;99.90;;;;;;4983356;28;20184;-63
2021/06/21 08:22:14;;;;;;;4.37;1.90;;;26.70;99.90;;;;;;4973459;28;20179;-63
2021/06/21 08:24:41;;;;;;;5.70;2.20;;;26.30;99.90;;;;;;4989011;28;20680;-64
2021/06/21 08:27:07;;;;;;;8.77;2.63;;;25.90;99.90;;;;;;4980875;28;20513;-62
2021/06/21 08:29:33;;;;;;;5.43;2.07;;;25.60;99.90;;;;;;4972920;28;20458;-62
2021/06/21 08:31:58;;;;;;;5.00;2.53;;;25.50;99.90;;;;;;4973368;28;20412;-63
2021/06/21 08:34:24;;;;;;;6.40;1.90;;;25.50;99.90;;;;;;4973335;28;20528;-64
2021/06/21 08:36:50;;;;;;;5.77;2.87;;;25.50;99.90;;;;;;4988229;28;20194;-62
2021/06/21 08:39:15;;;;;;;4.13;2.37;;;25.60;99.90;;;;;;4991814;28;20569;-63
2021/06/21 08:41:41;;;;;;;5.23;2.53;;;25.50;99.90;;;;;;4992488;28;20171;-65
2021/06/21 08:44:07;;;;;;;8.33;2.43;;;25.80;99.90;;;;;;4984740;28;20261;-63
2021/06/21 08:46:32;;;;;;;3.10;2.10;;;26.20;99.90;;;;;;4980507;28;20272;-63
2021/06/21 08:49:01;;;;;;;7.03;2.80;;;26.10;99.90;;;;;;4972827;28;20207;-63
2021/06/21 08:51:27;;;;;;;5.37;3.20;;;26.50;99.90;;;;;;4991773;28;20230;-64
2021/06/21 08:53:52;;;;;;;2.97;2.30;;;27.20;99.90;;;;;;4992491;28;20419;-62
2021/06/21 08:56:18;;;;;;;3.37;1.70;;;27.50;99.90;;;;;;4991170;28;20531;-64
2021/06/21 08:58:44;;;;;;;4.30;1.97;;;27.60;99.90;;;;;;4991958;28;20200;-62
2021/06/21 09:01:09;;;;;;;5.43;1.80;;;27.70;99.90;;;;;;4992660;28;20203;-63
2021/06/21 09:03:35;;;;;;;2.33;1.80;;;27.50;99.90;;;;;;4973752;28;20555;-64
2021/06/21 09:06:02;;;;;;;3.23;2.23;;;27.70;99.90;;;;;;4972916;28;20173;-63
2021/06/21 09:08:28;;;;;;;3.17;2.10;;;28.00;99.90;;;;;;4986100;28;20692;-64
2021/06/21 09:10:53;;;;;;;5.33;2.70;;;28.00;99.80;;;;;;4992198;28;20502;-66
2021/06/21 09:13:20;;;;;;;4.60;2.27;;;27.90;99.90;;;;;;4992197;28;20442;-63
2021/06/21 09:15:48;;;;;;;5.80;1.70;;;27.70;99.90;;;;;;4992334;28;20233;-63
2021/06/21 09:18:34;;;;;;;2.50;1.90;;;28.40;99.70;;;;;;4992052;28;20438;-65
2021/06/21 09:21:17;;;;;;;3.63;2.20;;;28.70;98.20;;;;;;4992183;28;20480;-63
2021/06/21 09:23:42;;;;;;;2.20;1.87;;;28.10;98.90;;;;;;4991848;28;20790;-64
2021/06/21 09:26:25;;;;;;;4.77;2.13;;;27.90;99.00;;;;;;4992684;28;20427;-64
2021/06/21 09:28:51;;;;;;;3.23;2.13;;;28.30;98.20;;;;;;4994513;28;20234;-63
2021/06/21 09:31:17;;;;;;;3.57;2.67;;;28.80;97.60;;;;;;4994446;28;20500;-64
2021/06/21 09:33:44;;;;;;;3.00;1.70;;;28.50;98.90;;;;;;4995937;28;20472;-62
2021/06/21 09:36:23;;;;;;;5.10;3.80;;;29.10;97.50;;;;;;4995708;28;20423;-63
2021/06/21 09:39:16;;;;;;;3.87;1.90;;;29.30;97.40;;;;;;4983077;28;20467;-65
2021/06/21 09:41:43;;;;;;;6.50;2.30;;;29.10;96.20;;;;;;4989908;28;20453;-64
2021/06/21 09:44:08;;;;;;;2.83;1.67;;;29.20;96.70;;;;;;4995678;28;20505;-64
2021/06/21 09:46:34;;;;;;;3.17;2.50;;;29.50;95.80;;;;;;4995466;28;20450;-65
2021/06/21 09:48:59;;;;;;;3.60;1.93;;;29.30;95.50;;;;;;4995270;28;20570;-65
2021/06/21 09:51:27;;;;;;;3.00;2.40;;;29.50;96.00;;;;;;4995673;28;20175;-66
2021/06/21 09:54:08;;;;;;;2.67;2.00;;;30.00;95.70;;;;;;4992156;28;20172;-64
2021/06/21 09:56:40;;;;;;;6.40;2.83;;;30.10;94.30;;;;;;4985217;28;20431;-64
2021/06/21 09:59:29;;;;;;;3.10;2.40;;;29.80;94.80;;;;;;4994423;28;20441;-65
2021/06/21 10:02:16;;;;;;;3.93;2.13;;;30.30;93.70;;;;;;4975958;28;20787;-65
2021/06/21 10:04:43;;;;;;;4.63;2.53;;;30.20;93.90;;;;;;4975735;28;20407;-64
2021/06/21 10:07:32;;;;;;;3.93;2.10;;;29.70;93.40;;;;;;4978994;28;20442;-66
2021/06/21 10:10:07;;;;;;;3.50;2.00;;;30.20;92.70;;;;;;4975384;28;20470;-65
2021/06/21 10:12:33;;;;;;;1.90;1.70;;;30.80;90.90;;;;;;4975617;28;20509;-64
2021/06/21 10:14:59;;;;;;;2.47;2.27;;;30.80;90.60;;;;;;4975519;28;20420;-63
2021/06/21 10:17:25;;;;;;;3.80;2.00;;;30.70;91.50;;;;;;4975610;28;20932;-64
2021/06/21 10:19:53;;;;;;;3.03;2.30;;;31.00;88.90;;;;;;4975164;28;20486;-65
2021/06/21 10:22:21;;;;;;;2.60;1.90;;;31.30;89.10;;;;;;4975768;28;20184;-66
2021/06/21 10:24:50;;;;;;;2.07;1.97;;;31.60;88.90;;;;;;4975397;28;20924;-64
2021/06/21 10:27:18;;;;;;;6.20;2.00;;;31.70;87.30;;;;;;4975369;28;20443;-64
2021/06/21 10:29:45;;;;;;;2.50;2.10;;;31.80;84.30;;;;;;4975061;28;20542;-65
2021/06/21 10:32:11;;;;;;;4.03;1.93;;;31.50;84.70;;;;;;4975422;28;20426;-65
2021/06/21 10:34:38;;;;;;;7.60;2.43;;;32.10;82.80;;;;;;4975262;28;20420;-65
2021/06/21 10:37:14;;;;;;;3.20;2.03;;;32.70;80.60;;;;;;4974692;28;20539;-65
2021/06/21 10:39:54;;;;;;;2.80;2.20;;;33.30;78.90;;;;;;4974919;28;20431;-65
2021/06/21 10:42:26;;;;;;;2.57;2.23;;;34.90;74.30;;;;;;4975136;28;20487;-65
2021/06/21 10:44:59;;;;;;;3.63;2.00;;;35.30;73.30;;;;;;4975055;28;20478;-65
2021/06/21 10:47:42;;;;;;;6.63;2.13;;;35.00;72.60;;;;;;4975000;28;20564;-66
2021/06/21 10:50:17;;;;;;;6.70;3.10;;;35.20;69.00;;;;;;4974607;28;20459;-64
2021/06/21 10:52:53;;;;;;;2.83;2.50;;;36.20;65.50;;;;;;4975033;28;20419;-66
2021/06/21 10:55:29;;;;;;;2.40;2.20;;;35.20;64.80;;;;;;4974837;28;20419;-64
2021/06/21 10:58:00;;;;;;;5.80;2.40;;;34.70;65.50;;;;;;4973534;28;21039;-65
2021/06/21 11:00:44;;;;;;;4.10;2.23;;;33.80;65.30;;;;;;4974586;28;20434;-64
2021/06/21 11:03:25;;;;;;;3.70;2.20;;;33.60;65.70;;;;;;4974741;28;20989;-64
2021/06/21 11:05:55;;;;;;;3.13;2.10;;;33.60;66.70;;;;;;4974562;28;20419;-65
2021/06/21 11:08:24;;;;;;;4.63;1.80;;;35.40;65.30;;;;;;4974337;28;20448;-65
2021/06/21 11:10:55;;;;;;;4.47;1.97;;;37.40;59.70;;;;;;4974611;28;20447;-65
2021/06/21 11:13:33;;;;;;;2.70;2.07;;;38.00;58.00;;;;;;4974491;28;20446;-65
2021/06/21 11:16:19;;;;;;;2.50;2.27;;;36.80;58.40;;;;;;4974381;28;20498;-64
2021/06/21 11:19:08;;;;;;;1.90;1.70;;;37.00;57.40;;;;;;4974154;28;20961;-65
2021/06/21 11:21:47;;;;;;;2.63;2.43;;;38.20;54.40;;;;;;4968669;28;20438;-64
2021/06/21 11:24:35;;;;;;;2.57;2.37;;;38.60;51.40;;;;;;4991678;28;20480;-65
2021/06/21 11:27:14;;;;;;;2.70;2.10;;;38.40;50.90;;;;;;4993490;28;20418;-65
2021/06/21 11:29:42;;;;;;;11.97;10.80;;;37.80;51.00;;;;;;4993446;28;20577;-65
2021/06/21 11:32:10;;;;;;;2.80;2.40;;;37.20;51.60;;;;;;4993587;28;20975;-65
2021/06/21 11:35:00;;;;;;;3.17;1.93;;;37.70;51.10;;;;;;4993564;28;20788;-66
2021/06/21 11:37:29;;;;;;;1.80;1.70;;;39.60;49.50;;;;;;4993336;28;20821;-65
2021/06/21 11:40:13;;;;;;;2.20;2.03;;;40.30;48.10;;;;;;4993107;28;20474;-63
2021/06/21 11:43:03;;;;;;;2.30;2.10;;;39.70;47.30;;;;;;4993755;28;20919;-62
2021/06/21 11:45:57;;;;;;;2.30;2.10;;;39.80;47.60;;;;;;4993170;28;20431;-62
2021/06/21 11:48:30;;;;;;;2.90;1.70;;;41.20;46.50;;;;;;4992851;28;20861;-62
2021/06/21 11:50:55;;;;;;;4.07;2.30;;;41.30;44.80;;;;;;4992970;28;20521;-63
2021/06/21 11:53:24;;;;;;;5.80;2.07;;;39.60;46.00;;;;;;4993242;28;20923;-63
2021/06/21 11:55:50;;;;;;;2.30;2.10;;;40.70;45.50;;;;;;4993181;28;20179;-62
2021/06/21 11:58:23;;;;;;;3.20;2.60;;;41.50;44.40;;;;;;4993202;28;21065;-63
2021/06/21 12:00:49;;;;;;;4.47;2.40;;;40.00;44.40;;;;;;4993242;28;20630;-64
2021/06/21 12:03:15;;;;;;;2.23;1.83;;;37.70;46.80;;;;;;4993137;28;20430;-65
2021/06/21 12:05:51;;;;;;;4.47;2.23;;;35.80;48.90;;;;;;4993129;28;20171;-65
2021/06/21 12:08:19;;;;;;;2.67;1.90;;;35.20;49.90;;;;;;4978299;28;20204;-64
2021/06/21 12:10:45;;;;;;;2.60;2.20;;;34.20;50.80;;;;;;4992080;28;20457;-65
2021/06/21 12:13:10;;;;;;;4.50;2.10;;;33.80;53.40;;;;;;4986883;28;20427;-65
2021/06/21 12:15:41;;;;;;;3.57;2.43;;;35.40;53.50;;;;;;4992950;28;20764;-64
2021/06/21 12:18:08;;;;;;;2.17;1.97;;;38.50;50.30;;;;;;4992738;28;20196;-64
2021/06/21 12:20:35;;;;;;;3.37;2.20;;;40.60;47.10;;;;;;4990421;28;20453;-64
2021/06/21 12:23:10;;;;;;;3.53;3.10;;;41.30;45.90;;;;;;4973571;28;20513;-65
2021/06/21 12:25:47;;;;;;;2.83;2.63;;;43.10;44.70;;;;;;4976969;28;20431;-64
2021/06/21 12:28:14;;;;;;;3.67;2.47;;;44.70;42.00;;;;;;4982994;28;20513;-64
2021/06/21 12:30:46;;;;;;;2.50;2.40;;;45.50;40.30;;;;;;4992400;28;20466;-66
2021/06/21 12:33:36;;;;;;;2.20;1.83;;;45.90;39.20;;;;;;4990783;28;20426;-65
2021/06/21 12:36:03;;;;;;;2.40;2.20;;;45.90;38.50;;;;;;4992631;28;20421;-65
2021/06/21 12:38:29;;;;;;;3.47;2.47;;;45.20;38.30;;;;;;4992023;28;20458;-64
2021/06/21 12:40:55;;;;;;;2.47;2.17;;;45.00;38.00;;;;;;4992246;28;20492;-65
2021/06/21 12:43:21;;;;;;;2.70;2.47;;;45.00;37.70;;;;;;4991010;28;20582;-65
2021/06/21 12:45:47;;;;;;;3.47;2.60;;;44.80;38.40;;;;;;4973012;28;20554;-65
2021/06/21 12:48:12;;;;;;;3.57;2.23;;;44.30;38.00;;;;;;4973191;28;20700;-65
2021/06/21 12:50:38;;;;;;;2.67;2.40;;;43.10;38.80;;;;;;4972806;28;20298;-66
2021/06/21 12:53:07;;;;;;;2.80;2.17;;;42.50;39.70;;;;;;4973072;28;20535;-65
2021/06/21 12:55:33;;;;;;;2.13;1.93;;;44.20;38.60;;;;;;4973144;28;20180;-65
2021/06/21 12:58:01;;;;;;;2.57;2.37;;;46.50;37.00;;;;;;4973323;28;20439;-65